Crooked Creek Research Lab Weather observations

Data are for 10 minute period ending at time listed.
 Day   Time    Ave.   Ave.  Ave.  Vector   Max.   Stn.    Total    Solar   Ave.   Snow 
  of    of     Air    Rel.  Wind   Wind    Wind   Baro.  Precip.   Rad.    Soil   Depth
Year   Day     Temp.  Hum.  Speed  Dir.    Gust   Pres.                    Temp.       
2014   (PST)    F      %     mph   deg.    mph     mb.     in.     W/m2     F      in. 
---------------------------------------------------------------------------------------  
 274    0:00   33.5    63    1.2   191      3.6   702.0    0.00       0    999.0    -0.6
 274    0:10   34.0    61    2.4   180      4.8   701.9    0.00       0    999.0    -0.7
 274    0:20   34.6    59    2.6   187      5.6   702.0    0.00       0    999.0    -0.7
 274    0:30   33.7    62    2.3   201      4.7   702.0    0.00       0    999.0    -0.7
 274    0:40   33.1    63    1.6   190      3.6   701.9    0.00       0    999.0    -0.7
 274    0:50   32.1    66    2.3   183      5.1   702.0    0.00       0    999.0    -0.8
 274    1:00   30.8    68    2.2   180      4.9   702.0    0.00       0    999.0    -0.6
 274    1:10   31.9    63    2.6   167      4.5   701.8    0.00       0    999.0    -0.7
 274    1:20   31.8    63    2.3   140      4.8   701.7    0.00       0    999.0    -0.7
 274    1:30   31.9    62    1.1   137      3.6   701.7    0.00       0    999.0    -0.7
 274    1:40   31.0    65    3.7   125      5.8   701.5    0.00       0    999.0    -0.6
 274    1:50   30.7    65    3.7   125      4.7   701.3    0.00       0    999.0    -0.6
 274    2:00   32.0    59    2.0   167      4.6   701.3    0.00       0    999.0    -0.5
 274    2:10   34.3    52    2.0   138      3.9   701.1    0.00       0    999.0    -0.7
 274    2:20   34.6    52    2.1   243      6.8   701.0    0.00       0    999.0    -0.6
 274    2:30   39.0    42    3.8   251     10.6   701.0    0.00       0    999.0    -0.6
 274    2:40   39.6    41    2.9   260      5.8   700.8    0.00       0    999.0    -0.7
 274    2:50   40.4    39    2.6   231      7.1   700.8    0.00       0    999.0    -0.7
 274    3:00   39.4    42    2.3   273      9.7   700.8    0.00       0    999.0    -0.8
 274    3:10   36.0    50    1.6   224      4.7   700.8    0.00       0    999.0    -0.8
 274    3:20   34.7    54    2.6   142      6.3   700.7    0.00       0    999.0    -0.8
 274    3:30   36.9    45    4.5   240     10.1   700.6    0.00       0    999.0    -0.5
 274    3:40   40.8    37    6.2   281     10.4   700.5    0.00       0    999.0    -0.7
 274    3:50   40.6    38    6.0   274     10.3   700.6    0.00       0    999.0    -0.7
 274    4:00   41.4    36    6.3   265     10.7   700.5    0.00       0    999.0    -0.7
 274    4:10   41.6    34    5.8   288     13.1   700.5    0.00       0    999.0    -0.7
 274    4:20   41.8    35    7.4   262     12.6   700.6    0.00       0    999.0    -0.7
 274    4:30   41.7    35    5.5   263     10.6   700.7    0.00       0    999.0    -0.7
 274    4:40   41.9    34    4.8   248     11.8   700.5    0.00       0    999.0    -0.6
 274    4:50   41.7    35    4.5   258     11.9   700.5    0.00       0    999.0    -0.7
 274    5:00   41.1    36    4.2   258     11.5   700.7    0.00       0    999.0    -0.7
 274    5:10   40.2    38    4.0   246      7.5   700.9    0.00       0    999.0    -0.7
 274    5:20   39.5    40    3.2   228      6.9   700.8    0.00       0    999.0    -0.7
 274    5:30   36.9    47    2.1   219      4.7   700.8    0.00       1    999.0    -0.9
 274    5:40   35.0    52    0.9   147      3.1   700.8    0.00       3    999.0    -0.8
 274    5:50   36.3    43    3.6   253      9.3   700.8    0.00       6    999.0    -0.5
 274    6:00   40.0    35    5.5   253     11.5   700.8    0.00       9    999.0    -0.6
 274    6:10   41.7    32    5.2   232     14.7   700.8    0.00      13    999.0    -0.6
 274    6:20   42.6    30    4.6   230     13.1   700.9    0.00      15    999.0    -0.7
 274    6:30   42.7    31    2.7   236      7.0   701.0    0.00      15    999.0    -0.7
 274    6:40   42.7    32    5.5   226     12.4   701.1    0.00      19    999.0    -0.6
 274    6:50   43.2    32    4.2   222     10.4   701.1    0.00      23    999.0    -0.7
 274    7:00   43.4    33    5.3   232     12.3   701.2    0.00      32    999.0    -0.7
 274    7:10   45.0    32    2.4   307      7.2   701.2    0.00     252    999.0    -0.7
 274    7:20   46.5    30    4.6   252     11.3   701.2    0.00     317    999.0    -0.8
 274    7:30   46.5    31    6.9   254     17.4   701.2    0.00     351    999.0    -0.7
 274    7:40   46.3    32    6.4   222     12.1   701.2    0.00     382    999.0    -0.7
 274    7:50   46.5    33    5.3   246     14.8   701.3    0.00     413    999.0    -0.7
 274    8:00   46.5    33    8.2   265     17.8   701.3    0.00     445    999.0    -0.7
 274    8:10   47.1    33    5.2   259     15.9   701.5    0.00     474    999.0    -0.7
 274    8:20   47.0    32    6.7   245     14.8   701.5    0.00     503    999.0    -0.7
 274    8:30   47.2    32    5.2   235     14.7   701.5    0.00     531    999.0    -0.7
 274    8:40   47.4    33    6.0   267     17.8   701.6    0.00     558    999.0    -0.7
 274    8:50   48.3    32    4.8   254     12.9   701.5    0.00     584    999.0    -0.6
 274    9:00   47.6    32    7.1   245     19.8   701.3    0.00     609    999.0    -0.7
 274    9:10   47.7    32    6.7   244     14.9   701.5    0.00     633    999.0    -0.6
 274    9:20   47.8    32    5.4   244     14.7   701.4    0.00     651    999.0    -0.6
 274    9:30   48.7    33    4.8   222     11.5   701.5    0.00     671    999.0    -0.6
 274    9:40   48.6    30    4.6   306     12.3   701.4    0.00     689    999.0    -0.6
 274    9:50   49.2    30    4.5   268      9.6   701.4    0.00     708    999.0    -0.6
 274   10:00   49.3    29    4.3   275     10.8   701.3    0.00     724    999.0    -0.6
 274   10:10   49.2    26    6.8   244     16.7   701.2    0.00     737    999.0    -0.6
 274   10:20   49.1    23    7.5   323     19.1   701.3    0.00     750    999.0    -0.6
 274   10:30   48.9    18    7.3   261     17.7   701.2    0.00     761    999.0    -0.5
 274   10:40   49.0    18    6.5   269     19.1   701.2    0.00     774    999.0    -0.5
 274   10:50   50.0    19    5.2   350     18.6   701.2    0.00     774    999.0    -0.6
 274   11:00   50.8    22    4.8   257      9.2   701.1    0.00     785    999.0    -0.6
 274   11:10   51.0    18    4.5   255     10.7   701.1    0.00     789    999.0    -0.5
 274   11:20   51.2    17    4.0   255     11.7   700.9    0.00     796    999.0    -0.6
 274   11:30   51.2    18    4.9   262     11.1   700.9    0.00     781    999.0    -0.5
 274   11:40   51.0    19    4.2   237     11.0   700.7    0.00     796    999.0    -0.6
 274   11:50   51.8    18    5.9   255     13.4   700.7    0.00     799    999.0    -0.4
 274   12:00   51.7    18    5.6   260     12.6   700.8    0.00     788    999.0    -0.6
 274   12:10   51.4    19    5.0   274     13.2   700.5    0.00     772    999.0    -0.6
 274   12:20   51.0    22    5.1   317     13.6   700.5    0.00     764    999.0    -0.5
 274   12:30   52.0    24    6.6   256     16.1   700.4    0.00     752    999.0    -0.6
 274   12:40   51.9    25    5.6   270     12.9   700.2    0.00     745    999.0    -0.5
 274   12:50   51.8    24    7.5   236     15.6   700.2    0.00     729    999.0    -0.6
 274   13:00   51.8    23    6.9   230     13.5   700.0    0.00     716    999.0    -0.6
 274   13:10   51.5    22    7.0   231     14.8   699.9    0.00     705    999.0    -0.6
 274   13:20   52.0    22    5.1   212     13.6   699.9    0.00     687    999.0    -0.6
 274   13:30   51.6    25    6.9   236     14.1   699.7    0.00     668    999.0    -0.7
 274   13:40   51.5    25    8.4   240     15.5   699.8    0.00     643    999.0    -0.6
 274   13:50   51.4    26    7.0   238     14.2   699.8    0.00     625    999.0    -0.6
 274   14:00   51.9    27    5.8   231     11.9   699.6    0.00     601    999.0    -0.6
 274   14:10   52.4    28    7.8   243     13.9   699.6    0.00     577    999.0    -0.6
 274   14:20   51.7    30    8.6   238     13.6   699.4    0.00     550    999.0    -0.6
 274   14:30   51.8    31    7.8   242     13.0   699.6    0.00     524    999.0    -0.6
 274   14:40   51.5    32    8.1   240     14.9   699.6    0.00     496    999.0    -0.6
 274   14:50   51.5    34    5.9   238     12.3   699.6    0.00     467    999.0    -0.6
 274   15:00   51.3    35    6.6   238     13.1   699.6    0.00     437    999.0    -0.6
 274   15:10   51.7    34    5.7   244     10.8   699.6    0.00     407    999.0    -0.6
 274   15:20   51.6    34    6.1   235     13.2   699.4    0.00     377    999.0    -0.6
 274   15:30   51.3    33    6.3   237     17.2   699.5    0.00     345    999.0    -0.7
 274   15:40   50.9    34    8.1   240     14.1   699.6    0.00     313    999.0    -0.7
 274   15:50   51.0    35    6.7   252     11.8   699.6    0.00     280    999.0    -0.6
 274   16:00   51.5    34    5.9   257     16.1   699.4    0.00     248    999.0    -0.7
 274   16:10   50.7    35    4.9   223     13.4   699.5    0.00     215    999.0    -0.7
 274   16:20   50.9    35    4.5   246     11.3   699.5    0.00     184    999.0    -0.7
 274   16:30   50.1    36    6.2   239     13.8   699.3    0.00     154    999.0    -0.7
 274   16:40   49.8    36    5.5   247     11.2   699.3    0.00     123    999.0    -0.7
 274   16:50   49.0    38    3.6   250      8.3   699.3    0.00      53    999.0    -0.8
 274   17:00   46.8    42    2.4   272      5.0   699.2    0.00      15    999.0    -0.7
 274   17:10   45.4    51    3.7    55      8.6   699.3    0.00      11    999.0    -0.7
 274   17:20   44.8    57    2.3    38      4.9   699.5    0.00       8    999.0    -0.6
 274   17:30   43.8    59    1.0    50      3.1   699.3    0.00       3    999.0    -0.6
 274   17:40   42.8    63    1.4    98      3.9   699.2    0.00       1    999.0    -0.6
 274   17:50   42.0    65    0.6    75      3.3   699.2    0.00       0    999.0    -0.6
 274   18:00   41.3    66    0.8   163      2.3   699.2    0.00       0    999.0    -0.6
 274   18:10   40.0    70    1.7   222      3.2   699.2    0.00       0    999.0    -0.6
 274   18:20   39.5    70    1.3   232      3.7   699.4    0.00       0    999.0    -0.7
 274   18:30   38.1    74    0.3   222      1.8   699.4    0.00       0    999.0    -0.7
 274   18:40   37.1    76    1.4   232      3.6   699.4    0.00       0    999.0    -0.5
 274   18:50   36.5    78    0.9   230      3.1   699.4    0.00       0    999.0    -0.6
 274   19:00   35.7    80    1.6   234      4.6   699.5    0.00       0    999.0    -0.5
 274   19:10   35.3    82    0.2   204      1.9   699.5    0.00       0    999.0    -0.5
 274   19:20   34.8    83    0.0   223      0.8   699.7    0.00       0    999.0    -0.5
 274   19:30   34.8    84    0.6   270      5.0   699.6    0.00       0    999.0    -0.4
 274   19:40   36.8    82    1.4    71      3.9   699.6    0.00       0    999.0    -0.4
 274   19:50   37.6    81    1.3    32      4.6   699.6    0.00       0    999.0    -0.5
 274   20:00   36.8    82    0.6   241      1.9   699.5    0.00       0    999.0    -0.6
 274   20:10   35.6    84    1.9   221      4.5   699.4    0.00       0    999.0    -0.6
 274   20:20   34.5    85    1.0   157      2.7   699.4    0.00       0    999.0    -0.6
 274   20:30   32.9    90    0.6   227      2.7   699.5    0.00       0    999.0    -0.5
 274   20:40   33.1    90    2.2   241      3.9   699.4    0.00       0    999.0    -0.5
 274   20:50   33.1    90    0.8   240      2.3   699.5    0.00       0    999.0    -0.5
 274   21:00   33.9    92    1.4   128      3.4   699.5    0.00       0    999.0    -0.4
 274   21:10   35.6    89    0.8   250      3.4   699.6    0.00       0    999.0    -0.6
 274   21:20   35.1    90    1.8   228      4.8   699.6    0.00       0    999.0    -0.5
 274   21:30   35.3    91    0.2   213      1.5   699.6    0.00       0    999.0    -0.4
 274   21:40   35.8    92    1.3    12      5.3   699.7    0.00       0    999.0    -0.4
 274   21:50   36.9    91    2.7    32      7.7   699.5    0.00       0    999.0    -0.5
 274   22:00   37.1    90    1.5   342      6.2   699.6    0.00       0    999.0    -0.5
 274   22:10   37.1    89    2.3   351      5.8   699.6    0.00       0    999.0    -0.5
 274   22:20   36.7    90    1.5    50      4.4   699.5    0.00       0    999.0    -0.5
 274   22:30   36.2    91    0.2   324      1.4   699.7    0.00       0    999.0    -0.5
 274   22:40   36.1    92    0.8   291      2.7   699.4    0.00       0    999.0    -0.5
 274   22:50   36.1    92    0.6   333      2.1   699.4    0.00       0    999.0    -0.5
 274   23:00   35.9    92    0.6   351      1.2   699.5    0.00       0    999.0    -0.6
 274   23:10   35.9    93    1.4   346      5.5   699.5    0.00       0    999.0    -0.5
 274   23:20   36.4    91    3.8   338      8.2   699.6    0.00       0    999.0    -0.5
 274   23:30   36.4    90    4.1   348      9.4   699.6    0.00       0    999.0    -0.5
 274   23:40   36.0    90    2.5     7      8.2   699.5    0.00       0    999.0    -0.6
 274   23:50   35.6    89    3.9   338      7.7   699.5    0.00       0    999.0    -0.5

Return to Crooked Creek Research Lab graphs page.


Western Regional Climate Center,wrcc@dri.edu